KHII/HII METAR and TAF weather

Enter ICAO airport designator
Station Type Date Time Source
KHII METAR 2021/09/16 10:35 UTC NOAA

KHII 161035Z AUTO 00000KT 10SM CLR 28/00 A2971 RMK AO2


Station Type Date Time Source
KHII Decoded METAR 2021/09/16 10:35 UTC NOAA

Station name not available
Sep 16, 2021 - 06:35 AM EDT / 2021.09.16 1035 UTC
Wind: Calm:0
Visibility: 10 mile(s):0
Sky conditions: clear
Temperature: 82 F (28 C)
Dew Point: 32 F (0 C)
Relative Humidity: 16%
Pressure (altimeter): 29.71 in. Hg (1006 hPa)
ob: KHII 161035Z AUTO 00000KT 10SM CLR 28/00 A2971 RMK AO2
cycle: 10

Station Type Date Time Source
KHII TAF UTC NOAA

Error!

Example: see airport list